sensor_id;sensor_type;location;lat;lon;timestamp;pressure;altitude;pressure_sealevel;temperature;humidity
21781;BME280;52576;53.614;9.894;2023-01-28T00:01:11;102719.91;;;1.08;66.79
21781;BME280;52576;53.614;9.894;2023-01-28T00:03:15;102712.13;;;1.07;66.67
21781;BME280;52576;53.614;9.894;2023-01-28T00:05:18;102714.75;;;1.04;66.76
21781;BME280;52576;53.614;9.894;2023-01-28T00:07:21;102719.03;;;1.03;66.41
21781;BME280;52576;53.614;9.894;2023-01-28T00:09:24;102717.31;;;1.00;66.78
21781;BME280;52576;53.614;9.894;2023-01-28T00:11:27;102714.72;;;0.97;66.66
21781;BME280;52576;53.614;9.894;2023-01-28T00:13:32;102718.13;;;0.95;66.93
21781;BME280;52576;53.614;9.894;2023-01-28T00:15:35;102711.25;;;0.94;67.05
21781;BME280;52576;53.614;9.894;2023-01-28T00:17:38;102716.41;;;0.92;67.05
21781;BME280;52576;53.614;9.894;2023-01-28T00:19:41;102721.56;;;0.92;67.12
21781;BME280;52576;53.614;9.894;2023-01-28T00:21:45;102715.53;;;0.90;67.27
21781;BME280;52576;53.614;9.894;2023-01-28T00:23:50;102722.41;;;0.90;67.44
21781;BME280;52576;53.614;9.894;2023-01-28T00:25:57;102720.69;;;0.90;67.81
21781;BME280;52576;53.614;9.894;2023-01-28T00:28:00;102724.13;;;0.91;67.92
21781;BME280;52576;53.614;9.894;2023-01-28T00:30:06;102722.44;;;0.94;68.07
21781;BME280;52576;53.614;9.894;2023-01-28T00:32:10;102728.47;;;0.96;68.07
21781;BME280;52576;53.614;9.894;2023-01-28T00:34:13;102717.28;;;0.97;67.85
21781;BME280;52576;53.614;9.894;2023-01-28T00:36:17;102725.03;;;0.99;67.90
21781;BME280;52576;53.614;9.894;2023-01-28T00:38:22;102721.59;;;0.98;67.65
21781;BME280;52576;53.614;9.894;2023-01-28T00:40:25;102719.03;;;0.98;68.01
21781;BME280;52576;53.614;9.894;2023-01-28T00:42:28;102716.44;;;0.97;67.87
21781;BME280;52576;53.614;9.894;2023-01-28T00:44:31;102711.25;;;0.97;67.86
21781;BME280;52576;53.614;9.894;2023-01-28T00:46:38;102719.00;;;0.95;68.23
21781;BME280;52576;53.614;9.894;2023-01-28T00:48:43;102711.25;;;0.94;68.50
21781;BME280;52576;53.614;9.894;2023-01-28T00:50:46;102710.38;;;0.93;68.52
21781;BME280;52576;53.614;9.894;2023-01-28T00:52:49;102720.72;;;0.93;68.56
21781;BME280;52576;53.614;9.894;2023-01-28T00:54:52;102712.09;;;0.93;68.51
21781;BME280;52576;53.614;9.894;2023-01-28T00:56:55;102708.63;;;0.89;68.23
21781;BME280;52576;53.614;9.894;2023-01-28T00:58:58;102704.34;;;0.88;68.45
21781;BME280;52576;53.614;9.894;2023-01-28T01:01:06;102713.78;;;0.86;68.31
21781;BME280;52576;53.614;9.894;2023-01-28T01:03:11;102710.34;;;0.87;68.46
21781;BME280;52576;53.614;9.894;2023-01-28T01:05:14;102712.06;;;0.88;68.42
21781;BME280;52576;53.614;9.894;2023-01-28T01:07:18;102714.66;;;0.88;68.64
21781;BME280;52576;53.614;9.894;2023-01-28T01:09:22;102715.50;;;0.87;68.95
21781;BME280;52576;53.614;9.894;2023-01-28T01:11:25;102713.78;;;0.88;69.15
21781;BME280;52576;53.614;9.894;2023-01-28T01:13:28;102721.53;;;0.88;69.24
21781;BME280;52576;53.614;9.894;2023-01-28T01:15:32;102715.50;;;0.87;69.16
21781;BME280;52576;53.614;9.894;2023-01-28T01:17:37;102720.69;;;0.87;69.14
21781;BME280;52576;53.614;9.894;2023-01-28T01:19:42;102720.69;;;0.87;68.92
21781;BME280;52576;53.614;9.894;2023-01-28T01:21:45;102723.25;;;0.87;68.95
21781;BME280;52576;53.614;9.894;2023-01-28T01:23:51;102715.53;;;0.89;68.97
21781;BME280;52576;53.614;9.894;2023-01-28T01:25:55;102724.13;;;0.91;69.05
21781;BME280;52576;53.614;9.894;2023-01-28T01:27:59;102718.13;;;0.90;68.86
21781;BME280;52576;53.614;9.894;2023-01-28T01:30:03;102713.81;;;0.89;68.84
21781;BME280;52576;53.614;9.894;2023-01-28T01:32:07;102703.47;;;0.89;69.27
21781;BME280;52576;53.614;9.894;2023-01-28T01:34:10;102706.94;;;0.91;69.29
21781;BME280;52576;53.614;9.894;2023-01-28T01:36:16;102708.66;;;0.92;69.39
21781;BME280;52576;53.614;9.894;2023-01-28T01:38:20;102711.25;;;0.94;69.38
21781;BME280;52576;53.614;9.894;2023-01-28T01:40:23;102712.97;;;0.95;69.30
21781;BME280;52576;53.614;9.894;2023-01-28T01:42:27;102698.34;;;0.95;69.14
21781;BME280;52576;53.614;9.894;2023-01-28T01:44:52;102698.34;;;0.95;69.04
21781;BME280;52576;53.614;9.894;2023-01-28T01:46:57;102703.50;;;0.95;68.76
21781;BME280;52576;53.614;9.894;2023-01-28T01:49:06;102704.38;;;0.94;68.91
21781;BME280;52576;53.614;9.894;2023-01-28T01:51:17;102708.66;;;0.92;68.91
21781;BME280;52576;53.614;9.894;2023-01-28T01:53:24;102711.22;;;0.91;68.90
21781;BME280;52576;53.614;9.894;2023-01-28T01:55:30;102714.66;;;0.88;68.95
21781;BME280;52576;53.614;9.894;2023-01-28T01:57:38;102705.16;;;0.84;69.03
21781;BME280;52576;53.614;9.894;2023-01-28T01:59:43;102706.00;;;0.80;69.03
21781;BME280;52576;53.614;9.894;2023-01-28T02:01:46;102709.47;;;0.76;69.34
21781;BME280;52576;53.614;9.894;2023-01-28T02:03:56;102708.59;;;0.74;69.41
21781;BME280;52576;53.614;9.894;2023-01-28T02:06:01;102705.13;;;0.72;69.61
21781;BME280;52576;53.614;9.894;2023-01-28T02:08:06;102701.69;;;0.72;69.49
21781;BME280;52576;53.614;9.894;2023-01-28T02:10:26;102703.41;;;0.71;69.56
21781;BME280;52576;53.614;9.894;2023-01-28T02:12:32;102708.56;;;0.71;69.73
21781;BME280;52576;53.614;9.894;2023-01-28T02:14:41;102715.44;;;0.69;70.01
21781;BME280;52576;53.614;9.894;2023-01-28T02:16:44;102711.13;;;0.68;70.03
21781;BME280;52576;53.614;9.894;2023-01-28T02:18:47;102708.56;;;0.68;70.12
21781;BME280;52576;53.614;9.894;2023-01-28T02:21:07;102711.13;;;0.66;70.02
21781;BME280;52576;53.614;9.894;2023-01-28T02:23:26;102711.97;;;0.64;70.33
21781;BME280;52576;53.614;9.894;2023-01-28T02:25:56;102708.50;;;0.62;70.24
21781;BME280;52576;53.614;9.894;2023-01-28T02:28:12;102702.47;;;0.60;70.30
21781;BME280;52576;53.614;9.894;2023-01-28T02:30:20;102694.75;;;0.60;70.57
21781;BME280;52576;53.614;9.894;2023-01-28T02:32:28;102697.31;;;0.58;70.55
21781;BME280;52576;53.614;9.894;2023-01-28T02:34:39;102701.59;;;0.58;70.53
21781;BME280;52576;53.614;9.894;2023-01-28T02:36:46;102700.72;;;0.56;70.58
21781;BME280;52576;53.614;9.894;2023-01-28T02:38:51;102705.03;;;0.57;70.36
21781;BME280;52576;53.614;9.894;2023-01-28T02:41:03;102696.44;;;0.55;70.19
21781;BME280;52576;53.614;9.894;2023-01-28T02:43:07;102695.56;;;0.56;70.20
21781;BME280;52576;53.614;9.894;2023-01-28T02:45:22;102702.44;;;0.55;70.27
21781;BME280;52576;53.614;9.894;2023-01-28T02:47:48;102699.88;;;0.57;70.30
21781;BME280;52576;53.614;9.894;2023-01-28T02:49:59;102705.03;;;0.57;70.25
21781;BME280;52576;53.614;9.894;2023-01-28T02:52:35;102711.06;;;0.57;70.31
21781;BME280;52576;53.614;9.894;2023-01-28T02:55:05;102708.47;;;0.56;70.45
21781;BME280;52576;53.614;9.894;2023-01-28T02:57:20;102706.75;;;0.55;70.18
21781;BME280;52576;53.614;9.894;2023-01-28T02:59:28;102706.75;;;0.55;70.31
21781;BME280;52576;53.614;9.894;2023-01-28T03:01:41;102702.44;;;0.52;70.41
21781;BME280;52576;53.614;9.894;2023-01-28T03:03:55;102701.59;;;0.52;70.28
21781;BME280;52576;53.614;9.894;2023-01-28T03:06:02;102701.59;;;0.52;70.58
21781;BME280;52576;53.614;9.894;2023-01-28T03:08:09;102705.03;;;0.54;70.46
21781;BME280;52576;53.614;9.894;2023-01-28T03:10:27;102694.69;;;0.54;70.67
21781;BME280;52576;53.614;9.894;2023-01-28T03:12:31;102696.44;;;0.55;70.69
21781;BME280;52576;53.614;9.894;2023-01-28T03:14:57;102690.41;;;0.56;70.64
21781;BME280;52576;53.614;9.894;2023-01-28T03:17:24;102683.53;;;0.55;70.65
21781;BME280;52576;53.614;9.894;2023-01-28T03:19:46;102688.69;;;0.53;70.72
21781;BME280;52576;53.614;9.894;2023-01-28T03:22:07;102687.81;;;0.53;70.86
21781;BME280;52576;53.614;9.894;2023-01-28T03:24:31;102693.84;;;0.52;70.95
21781;BME280;52576;53.614;9.894;2023-01-28T03:26:55;102692.97;;;0.53;71.03
21781;BME280;52576;53.614;9.894;2023-01-28T03:29:20;102693.00;;;0.50;71.15
21781;BME280;52576;53.614;9.894;2023-01-28T03:31:45;102701.56;;;0.49;71.03
21781;BME280;52576;53.614;9.894;2023-01-28T03:34:09;102692.09;;;0.46;71.01
21781;BME280;52576;53.614;9.894;2023-01-28T03:36:30;102699.84;;;0.46;71.10
21781;BME280;52576;53.614;9.894;2023-01-28T03:39:26;102700.69;;;0.47;71.11
21781;BME280;52576;53.614;9.894;2023-01-28T03:41:30;102700.69;;;0.45;71.01
21781;BME280;52576;53.614;9.894;2023-01-28T03:43:33;102702.41;;;0.43;71.00
21781;BME280;52576;53.614;9.894;2023-01-28T03:45:37;102703.25;;;0.41;71.24
21781;BME280;52576;53.614;9.894;2023-01-28T03:47:40;102710.97;;;0.39;71.26
21781;BME280;52576;53.614;9.894;2023-01-28T03:49:49;102712.66;;;0.37;71.48
21781;BME280;52576;53.614;9.894;2023-01-28T03:51:55;102711.81;;;0.37;71.41
21781;BME280;52576;53.614;9.894;2023-01-28T03:53:58;102699.75;;;0.36;71.29
21781;BME280;52576;53.614;9.894;2023-01-28T03:56:01;102704.94;;;0.36;71.25
21781;BME280;52576;53.614;9.894;2023-01-28T03:58:05;102709.22;;;0.35;71.12
21781;BME280;52576;53.614;9.894;2023-01-28T04:00:10;102710.09;;;0.36;71.33
21781;BME280;52576;53.614;9.894;2023-01-28T04:02:17;102707.50;;;0.36;71.22
21781;BME280;52576;53.614;9.894;2023-01-28T04:04:21;102699.75;;;0.36;71.28
21781;BME280;52576;53.614;9.894;2023-01-28T04:06:29;102704.06;;;0.33;71.22
21781;BME280;52576;53.614;9.894;2023-01-28T04:08:42;102706.63;;;0.32;71.02
21781;BME280;52576;53.614;9.894;2023-01-28T04:11:02;102701.41;;;0.27;70.92
21781;BME280;52576;53.614;9.894;2023-01-28T04:13:18;102693.69;;;0.24;70.95
21781;BME280;52576;53.614;9.894;2023-01-28T04:15:21;102692.78;;;0.19;71.15
21781;BME280;52576;53.614;9.894;2023-01-28T04:17:24;102691.03;;;0.15;71.31
21781;BME280;52576;53.614;9.894;2023-01-28T04:19:27;102697.03;;;0.11;71.34
21781;BME280;52576;53.614;9.894;2023-01-28T04:21:34;102693.53;;;0.03;71.55
21781;BME280;52576;53.614;9.894;2023-01-28T04:23:38;102689.22;;;-0.01;71.66
21781;BME280;52576;53.614;9.894;2023-01-28T04:25:42;102693.47;;;-0.06;71.72
21781;BME280;52576;53.614;9.894;2023-01-28T04:27:45;102690.00;;;-0.11;71.85
21781;BME280;52576;53.614;9.894;2023-01-28T04:29:52;102696.81;;;-0.16;71.97
21781;BME280;52576;53.614;9.894;2023-01-28T04:32:25;102695.91;;;-0.21;71.96
21781;BME280;52576;53.614;9.894;2023-01-28T04:34:42;102697.63;;;-0.26;72.13
21781;BME280;52576;53.614;9.894;2023-01-28T04:37:05;102696.69;;;-0.31;72.28
21781;BME280;52576;53.614;9.894;2023-01-28T04:39:25;102690.63;;;-0.37;72.26
21781;BME280;52576;53.614;9.894;2023-01-28T04:41:54;102698.31;;;-0.41;72.41
21781;BME280;52576;53.614;9.894;2023-01-28T04:44:09;102699.16;;;-0.44;72.54
21781;BME280;52576;53.614;9.894;2023-01-28T04:46:43;102704.31;;;-0.44;72.61
21781;BME280;52576;53.614;9.894;2023-01-28T04:48:50;102697.41;;;-0.45;72.55
21781;BME280;52576;53.614;9.894;2023-01-28T04:51:13;102702.56;;;-0.45;72.70
21781;BME280;52576;53.614;9.894;2023-01-28T04:53:31;102699.97;;;-0.46;72.89
21781;BME280;52576;53.614;9.894;2023-01-28T04:55:41;102703.44;;;-0.46;73.10
21781;BME280;52576;53.614;9.894;2023-01-28T04:57:45;102706.00;;;-0.46;72.97
21781;BME280;52576;53.614;9.894;2023-01-28T04:59:49;102706.84;;;-0.48;73.01
21781;BME280;52576;53.614;9.894;2023-01-28T05:01:52;102709.38;;;-0.50;73.19
21781;BME280;52576;53.614;9.894;2023-01-28T05:03:55;102712.81;;;-0.51;73.41
21781;BME280;52576;53.614;9.894;2023-01-28T05:06:00;102703.38;;;-0.50;73.46
21781;BME280;52576;53.614;9.894;2023-01-28T05:08:13;102707.66;;;-0.51;73.57
21781;BME280;52576;53.614;9.894;2023-01-28T05:10:21;102700.78;;;-0.52;73.42
21781;BME280;52576;53.614;9.894;2023-01-28T05:12:25;102685.31;;;-0.52;73.53
21781;BME280;52576;53.614;9.894;2023-01-28T05:14:30;102687.91;;;-0.53;73.66
21781;BME280;52576;53.614;9.894;2023-01-28T05:16:39;102682.75;;;-0.55;73.90
21781;BME280;52576;53.614;9.894;2023-01-28T05:18:42;102681.84;;;-0.58;73.86
21781;BME280;52576;53.614;9.894;2023-01-28T05:20:50;102681.84;;;-0.60;73.84
21781;BME280;52576;53.614;9.894;2023-01-28T05:22:53;102680.94;;;-0.63;73.79
21781;BME280;52576;53.614;9.894;2023-01-28T05:24:59;102680.03;;;-0.67;73.86
21781;BME280;52576;53.614;9.894;2023-01-28T05:27:05;102673.13;;;-0.71;73.84
21781;BME280;52576;53.614;9.894;2023-01-28T05:29:10;102667.91;;;-0.77;74.06
21781;BME280;52576;53.614;9.894;2023-01-28T05:31:13;102666.19;;;-0.81;74.19
21781;BME280;52576;53.614;9.894;2023-01-28T05:33:16;102673.84;;;-0.86;74.03
21781;BME280;52576;53.614;9.894;2023-01-28T05:35:19;102666.94;;;-0.90;74.01
21781;BME280;52576;53.614;9.894;2023-01-28T05:37:22;102664.31;;;-0.94;74.15
21781;BME280;52576;53.614;9.894;2023-01-28T05:39:29;102666.81;;;-0.99;74.42
21781;BME280;52576;53.614;9.894;2023-01-28T05:41:33;102672.78;;;-1.05;74.37
21781;BME280;52576;53.614;9.894;2023-01-28T05:43:38;102683.00;;;-1.11;74.47
21781;BME280;52576;53.614;9.894;2023-01-28T05:46:20;102672.63;;;-1.17;74.78
21781;BME280;52576;53.614;9.894;2023-01-28T05:48:50;102669.13;;;-1.22;74.94
21781;BME280;52576;53.614;9.894;2023-01-28T05:51:25;102669.94;;;-1.26;75.11
21781;BME280;52576;53.614;9.894;2023-01-28T05:53:31;102664.78;;;-1.27;75.28
21781;BME280;52576;53.614;9.894;2023-01-28T05:55:34;102669.03;;;-1.29;75.48
21781;BME280;52576;53.614;9.894;2023-01-28T05:57:37;102672.47;;;-1.32;75.38
21781;BME280;52576;53.614;9.894;2023-01-28T05:59:43;102680.13;;;-1.35;75.38
21781;BME280;52576;53.614;9.894;2023-01-28T06:01:46;102684.41;;;-1.37;75.51
21781;BME280;52576;53.614;9.894;2023-01-28T06:03:50;102670.66;;;-1.39;75.56
21781;BME280;52576;53.614;9.894;2023-01-28T06:05:53;102672.38;;;-1.38;75.69
21781;BME280;52576;53.614;9.894;2023-01-28T06:07:56;102672.38;;;-1.38;75.62
21781;BME280;52576;53.614;9.894;2023-01-28T06:09:59;102665.56;;;-1.36;75.78
21781;BME280;52576;53.614;9.894;2023-01-28T06:12:03;102662.13;;;-1.35;75.91
21781;BME280;52576;53.614;9.894;2023-01-28T06:14:16;102667.31;;;-1.32;75.75
21781;BME280;52576;53.614;9.894;2023-01-28T06:16:41;102670.78;;;-1.30;75.81
21781;BME280;52576;53.614;9.894;2023-01-28T06:18:55;102663.91;;;-1.28;75.64
21781;BME280;52576;53.614;9.894;2023-01-28T06:20:59;102665.63;;;-1.27;75.56
21781;BME280;52576;53.614;9.894;2023-01-28T06:23:02;102651.94;;;-1.26;75.54
21781;BME280;52576;53.614;9.894;2023-01-28T06:25:06;102651.94;;;-1.26;75.49
21781;BME280;52576;53.614;9.894;2023-01-28T06:27:09;102651.94;;;-1.26;75.53
21781;BME280;52576;53.614;9.894;2023-01-28T06:29:12;102645.94;;;-1.26;75.47
21781;BME280;52576;53.614;9.894;2023-01-28T06:31:15;102639.91;;;-1.27;75.31
21781;BME280;52576;53.614;9.894;2023-01-28T06:33:21;102640.75;;;-1.28;75.29
21781;BME280;52576;53.614;9.894;2023-01-28T06:35:25;102645.06;;;-1.30;75.45
21781;BME280;52576;53.614;9.894;2023-01-28T06:37:28;102657.91;;;-1.31;75.45
21781;BME280;52576;53.614;9.894;2023-01-28T06:39:31;102658.72;;;-1.34;75.43
21781;BME280;52576;53.614;9.894;2023-01-28T06:41:34;102638.97;;;-1.37;75.45
21781;BME280;52576;53.614;9.894;2023-01-28T06:43:37;102644.06;;;-1.40;75.62
21781;BME280;52576;53.614;9.894;2023-01-28T06:45:40;102644.88;;;-1.42;75.57
21781;BME280;52576;53.614;9.894;2023-01-28T06:47:43;102650.00;;;-1.45;75.64
21781;BME280;52576;53.614;9.894;2023-01-28T06:49:48;102655.09;;;-1.48;75.72
21781;BME280;52576;53.614;9.894;2023-01-28T06:51:51;102663.59;;;-1.52;75.80
21781;BME280;52576;53.614;9.894;2023-01-28T06:53:54;102680.72;;;-1.54;75.87
21781;BME280;52576;53.614;9.894;2023-01-28T06:55:57;102691.00;;;-1.57;75.80
21781;BME280;52576;53.614;9.894;2023-01-28T06:58:00;102691.84;;;-1.58;75.89
21781;BME280;52576;53.614;9.894;2023-01-28T07:00:04;102697.78;;;-1.62;75.94
21781;BME280;52576;53.614;9.894;2023-01-28T07:02:09;102702.88;;;-1.64;76.15
21781;BME280;52576;53.614;9.894;2023-01-28T07:04:13;102712.28;;;-1.66;76.21
21781;BME280;52576;53.614;9.894;2023-01-28T07:06:17;102718.25;;;-1.68;76.34
21781;BME280;52576;53.614;9.894;2023-01-28T07:08:20;102731.94;;;-1.69;76.20
21781;BME280;52576;53.614;9.894;2023-01-28T07:10:23;102731.91;;;-1.71;76.37
21781;BME280;52576;53.614;9.894;2023-01-28T07:12:26;102727.59;;;-1.74;76.44
21781;BME280;52576;53.614;9.894;2023-01-28T07:14:29;102729.25;;;-1.77;76.48
21781;BME280;52576;53.614;9.894;2023-01-28T07:16:33;102738.66;;;-1.78;76.56
21781;BME280;52576;53.614;9.894;2023-01-28T07:18:36;102752.34;;;-1.79;76.60
21781;BME280;52576;53.614;9.894;2023-01-28T07:20:39;102736.88;;;-1.82;76.72
21781;BME280;52576;53.614;9.894;2023-01-28T07:22:47;102747.16;;;-1.83;76.79
21781;BME280;52576;53.614;9.894;2023-01-28T07:24:50;102748.00;;;-1.84;77.03
21781;BME280;52576;53.614;9.894;2023-01-28T07:26:53;102741.09;;;-1.87;77.00
21781;BME280;52576;53.614;9.894;2023-01-28T07:28:56;102749.66;;;-1.88;77.10
21781;BME280;52576;53.614;9.894;2023-01-28T07:31:01;102738.50;;;-1.90;77.11
21781;BME280;52576;53.614;9.894;2023-01-28T07:33:04;102735.88;;;-1.91;77.21
21781;BME280;52576;53.614;9.894;2023-01-28T07:35:08;102734.19;;;-1.91;77.39
21781;BME280;52576;53.614;9.894;2023-01-28T07:37:11;102739.31;;;-1.92;77.35
21781;BME280;52576;53.614;9.894;2023-01-28T07:39:15;102750.44;;;-1.92;77.56
21781;BME280;52576;53.614;9.894;2023-01-28T07:41:18;102748.72;;;-1.93;77.63
21781;BME280;52576;53.614;9.894;2023-01-28T07:43:21;102748.72;;;-1.93;77.60
21781;BME280;52576;53.614;9.894;2023-01-28T07:45:25;102745.28;;;-1.93;77.67
21781;BME280;52576;53.614;9.894;2023-01-28T07:47:29;102752.97;;;-1.95;77.52
21781;BME280;52576;53.614;9.894;2023-01-28T07:49:33;102752.97;;;-1.95;77.77
21781;BME280;52576;53.614;9.894;2023-01-28T07:51:36;102745.25;;;-1.95;77.86
21781;BME280;52576;53.614;9.894;2023-01-28T07:53:39;102745.25;;;-1.95;77.90
21781;BME280;52576;53.614;9.894;2023-01-28T07:55:43;102740.13;;;-1.95;77.96
21781;BME280;52576;53.614;9.894;2023-01-28T07:57:48;102750.38;;;-1.95;77.99
21781;BME280;52576;53.614;9.894;2023-01-28T07:59:51;102758.94;;;-1.96;77.98
21781;BME280;52576;53.614;9.894;2023-01-28T08:01:54;102750.38;;;-1.96;78.08
21781;BME280;52576;53.614;9.894;2023-01-28T08:03:57;102756.34;;;-1.97;78.10
21781;BME280;52576;53.614;9.894;2023-01-28T08:06:00;102755.50;;;-1.96;78.12
21781;BME280;52576;53.614;9.894;2023-01-28T08:08:04;102758.09;;;-1.95;78.23
21781;BME280;52576;53.614;9.894;2023-01-28T08:10:08;102765.81;;;-1.95;78.23
21781;BME280;52576;53.614;9.894;2023-01-28T08:12:13;102760.66;;;-1.95;78.29
21781;BME280;52576;53.614;9.894;2023-01-28T08:14:16;102757.25;;;-1.94;78.33
21781;BME280;52576;53.614;9.894;2023-01-28T08:16:20;102762.41;;;-1.94;78.23
21781;BME280;52576;53.614;9.894;2023-01-28T08:18:23;102759.00;;;-1.93;78.45
21781;BME280;52576;53.614;9.894;2023-01-28T08:20:27;102757.31;;;-1.91;78.64
21781;BME280;52576;53.614;9.894;2023-01-28T08:22:30;102763.34;;;-1.89;78.46
21781;BME280;52576;53.614;9.894;2023-01-28T08:24:33;102759.09;;;-1.87;78.38
21781;BME280;52576;53.614;9.894;2023-01-28T08:26:36;102755.72;;;-1.84;78.52
21781;BME280;52576;53.614;9.894;2023-01-28T08:28:41;102753.16;;;-1.81;78.32
21781;BME280;52576;53.614;9.894;2023-01-28T08:30:44;102748.94;;;-1.78;78.46
21781;BME280;52576;53.614;9.894;2023-01-28T08:32:48;102735.31;;;-1.74;78.33
21781;BME280;52576;53.614;9.894;2023-01-28T08:34:51;102725.06;;;-1.71;78.29
21781;BME280;52576;53.614;9.894;2023-01-28T08:36:54;102742.28;;;-1.66;78.35
21781;BME280;52576;53.614;9.894;2023-01-28T08:38:57;102756.06;;;-1.61;78.33
21781;BME280;52576;53.614;9.894;2023-01-28T08:41:03;102753.56;;;-1.57;78.29
21781;BME280;52576;53.614;9.894;2023-01-28T08:43:06;102757.91;;;-1.51;78.23
21781;BME280;52576;53.614;9.894;2023-01-28T08:45:11;102772.56;;;-1.46;78.08
21781;BME280;52576;53.614;9.894;2023-01-28T08:47:14;102771.00;;;-1.38;77.96
21781;BME280;52576;53.614;9.894;2023-01-28T08:49:17;102786.53;;;-1.31;77.87
21781;BME280;52576;53.614;9.894;2023-01-28T08:51:20;102782.28;;;-1.25;77.46
21781;BME280;52576;53.614;9.894;2023-01-28T08:53:24;102780.66;;;-1.20;77.41
21781;BME280;52576;53.614;9.894;2023-01-28T08:55:27;102786.78;;;-1.12;77.11
21781;BME280;52576;53.614;9.894;2023-01-28T08:57:30;102777.44;;;-1.05;76.95
21781;BME280;52576;53.614;9.894;2023-01-28T08:59:33;102777.53;;;-0.97;76.61
21781;BME280;52576;53.614;9.894;2023-01-28T09:01:38;102777.66;;;-0.88;76.47
21781;BME280;52576;53.614;9.894;2023-01-28T09:03:41;102783.75;;;-0.80;75.88
21781;BME280;52576;53.614;9.894;2023-01-28T09:05:44;102782.97;;;-0.73;75.73
21781;BME280;52576;53.614;9.894;2023-01-28T09:07:47;102790.78;;;-0.65;75.59
21781;BME280;52576;53.614;9.894;2023-01-28T09:09:51;102793.47;;;-0.58;75.20
21781;BME280;52576;53.614;9.894;2023-01-28T09:11:54;102790.09;;;-0.51;74.85
21781;BME280;52576;53.614;9.894;2023-01-28T09:13:57;102797.00;;;-0.47;74.55
21781;BME280;52576;53.614;9.894;2023-01-28T09:16:03;102802.19;;;-0.44;74.29
21781;BME280;52576;53.614;9.894;2023-01-28T09:18:08;102808.25;;;-0.39;73.88
21781;BME280;52576;53.614;9.894;2023-01-28T09:20:11;102804.88;;;-0.35;73.73
21781;BME280;52576;53.614;9.894;2023-01-28T09:22:15;102804.09;;;-0.27;73.46
21781;BME280;52576;53.614;9.894;2023-01-28T09:24:18;102820.44;;;-0.22;73.08
21781;BME280;52576;53.614;9.894;2023-01-28T09:26:22;102818.78;;;-0.19;72.90
21781;BME280;52576;53.614;9.894;2023-01-28T09:28:25;102814.53;;;-0.15;72.71
21781;BME280;52576;53.614;9.894;2023-01-28T09:30:28;102819.72;;;-0.12;72.50
21781;BME280;52576;53.614;9.894;2023-01-28T09:32:31;102824.06;;;-0.08;72.13
21781;BME280;52576;53.614;9.894;2023-01-28T09:34:36;102823.16;;;-0.10;71.83
21781;BME280;52576;53.614;9.894;2023-01-28T09:36:39;102825.75;;;-0.10;71.60
21781;BME280;52576;53.614;9.894;2023-01-28T09:38:42;102822.31;;;-0.11;71.56
21781;BME280;52576;53.614;9.894;2023-01-28T09:40:46;102827.47;;;-0.09;71.37
21781;BME280;52576;53.614;9.894;2023-01-28T09:42:58;102822.34;;;-0.06;70.94
21781;BME280;52576;53.614;9.894;2023-01-28T09:45:11;102816.38;;;-0.02;70.65
21781;BME280;52576;53.614;9.894;2023-01-28T09:47:18;102806.94;;;0.02;70.51
21781;BME280;52576;53.614;9.894;2023-01-28T09:49:31;102800.97;;;0.07;70.57
21781;BME280;52576;53.614;9.894;2023-01-28T09:51:40;102808.78;;;0.13;70.33
21781;BME280;52576;53.614;9.894;2023-01-28T09:53:46;102812.28;;;0.21;70.07
21781;BME280;52576;53.614;9.894;2023-01-28T09:55:55;102808.88;;;0.28;69.71
21781;BME280;52576;53.614;9.894;2023-01-28T09:57:58;102797.78;;;0.36;69.59
21781;BME280;52576;53.614;9.894;2023-01-28T10:00:02;102792.69;;;0.42;69.41
21781;BME280;52576;53.614;9.894;2023-01-28T10:04:55;102775.56;;;0.56;69.19
21781;BME280;52576;53.614;9.894;2023-01-28T10:07:11;102773.88;;;0.61;69.13
21781;BME280;52576;53.614;9.894;2023-01-28T10:09:26;102776.50;;;0.67;68.74
21781;BME280;52576;53.614;9.894;2023-01-28T10:11:45;102777.41;;;0.72;68.38
21781;BME280;52576;53.614;9.894;2023-01-28T10:13:54;102770.56;;;0.77;68.37
21781;BME280;52576;53.614;9.894;2023-01-28T10:16:22;102772.28;;;0.84;68.06
21781;BME280;52576;53.614;9.894;2023-01-28T10:18:33;102781.78;;;0.88;67.90
21781;BME280;52576;53.614;9.894;2023-01-28T10:20:41;102786.97;;;0.93;67.45
21781;BME280;52576;53.614;9.894;2023-01-28T10:22:49;102776.66;;;0.94;67.31
21781;BME280;52576;53.614;9.894;2023-01-28T10:24:56;102768.91;;;0.94;67.19
21781;BME280;52576;53.614;9.894;2023-01-28T10:27:08;102760.31;;;0.94;67.27
21781;BME280;52576;53.614;9.894;2023-01-28T10:29:15;102755.97;;;0.91;67.27
21781;BME280;52576;53.614;9.894;2023-01-28T10:31:20;102759.44;;;0.93;67.13
21781;BME280;52576;53.614;9.894;2023-01-28T10:33:28;102763.75;;;0.94;67.21
21781;BME280;52576;53.614;9.894;2023-01-28T10:35:38;102758.59;;;0.96;67.14
21781;BME280;52576;53.614;9.894;2023-01-28T10:37:42;102753.44;;;0.97;67.16
21781;BME280;52576;53.614;9.894;2023-01-28T10:39:47;102739.69;;;1.01;66.80
21781;BME280;52576;53.614;9.894;2023-01-28T10:41:50;102734.53;;;1.08;67.00
21781;BME280;52576;53.614;9.894;2023-01-28T10:43:59;102724.22;;;1.14;67.23
21781;BME280;52576;53.614;9.894;2023-01-28T10:46:07;102723.41;;;1.22;67.09
21781;BME280;52576;53.614;9.894;2023-01-28T10:48:17;102733.75;;;1.30;67.12
21781;BME280;52576;53.614;9.894;2023-01-28T10:50:25;102729.44;;;1.36;67.03
21781;BME280;52576;53.614;9.894;2023-01-28T10:52:28;102716.53;;;1.41;66.70
21781;BME280;52576;53.614;9.894;2023-01-28T10:54:32;102712.25;;;1.43;66.56
21781;BME280;52576;53.614;9.894;2023-01-28T10:56:36;102706.22;;;1.43;66.60
21781;BME280;52576;53.614;9.894;2023-01-28T10:58:49;102696.75;;;1.43;66.56
21781;BME280;52576;53.614;9.894;2023-01-28T11:00:56;102710.53;;;1.42;66.80
21781;BME280;52576;53.614;9.894;2023-01-28T11:02:59;102709.66;;;1.42;66.80
21781;BME280;52576;53.614;9.894;2023-01-28T11:05:05;102713.09;;;1.41;66.49
21781;BME280;52576;53.614;9.894;2023-01-28T11:07:16;102706.22;;;1.40;66.51
21781;BME280;52576;53.614;9.894;2023-01-28T11:09:22;102705.34;;;1.39;66.64
21781;BME280;52576;53.614;9.894;2023-01-28T11:11:26;102694.16;;;1.39;66.69
21781;BME280;52576;53.614;9.894;2023-01-28T11:13:31;102705.34;;;1.42;66.48